Карточка аэропорта UHMA

Внимание!
Информация на этой странице в стадии наполнения.
Если вы не увидели какой-то информации, или заметили неточность - пожалуйста сообщите нам!
Спасибо!
Команда RU-STAFF
Название аэропортаУгольный
Название аэропорта (англ.)Ugolny
Превышение194 ft. (59.1 m.)
Координаты64°44.1', 177°44.28'
Высота перехода1600m
Эшелон переходаQFE>=755mm:FL070; QFE<755=>728:FL080; QFE<728:FL090
Коды ответчика6501-6537
Зона ОрВДМагадан РПИ (UHMM)
Данные METARUHMA 212000Z 11003MPS 9000 -SHRA SCT011 SCT019CB OVC028 12/10 Q1014 R02/////// NOSIG RMK MID 06005G09MPS END R02/07004MPS MT OBSC QFE757/1009
Проноз погоды (TAF)UHMA 211650Z 2118/2218 13007G12MPS 9999 SCT005 BKN015 TEMPO 2118/2218 10012G17MPS 1100 -SHRA BR BKN002 BKN020CB
NOTAMshow/hide NOTAM
AWOS   TABLE

Информация о ВПП


Диспетчерские позиции

Позывной Наименование органа УВД Частота
UHMA_APPАнадырь-Подход124.0
UHMA_TWRАнадырь-Старт124.0



Спутниковое изображение